Maspalomas — EA3539 — position and weather

sailwx.info

Track history (hours):
 
Tides and Currents Weather Stations Pressure Air Temp Water Temp Dewpoint Dewpoint Depression Visibility Wind Speed Wind Dir Waves Ship Positions

Maspalomas

Last reported at 2017-Nov-18 04:31 UTC. Time now 2017-Nov-20 15:31 UTC.
Position N 28°09' W 015°26'.

Length 23 m.

Type: Port tender. MMSI: 224060250.

Date/timePositionNaut miles runAvg speedWind from/ knotsBaromVisibWave heightAir tempDewpointWater temp
2017-Nov-18 04:31N 28°09' W 015°26'0 0.0
2017-Nov-18 04:28N 28°09' W 015°26'1 2.6
2017-Nov-18 03:54N 28°07' W 015°25'0 0.0
2017-Nov-18 03:21N 28°07' W 015°25'0 0.0
2017-Nov-18 02:54N 28°07' W 015°25'0 0.1
2017-Nov-18 02:22N 28°08' W 015°25'0 0.2
2017-Nov-18 02:00N 28°07' W 015°25'1 0.2
2017-Nov-17 16:51N 28°09' W 015°26'2 6.9
2017-Nov-17 16:30N 28°07' W 015°25'0 0.7
2017-Nov-17 15:58N 28°06' W 015°24'0 0.0
2017-Nov-17 15:28N 28°06' W 015°24'0 0.0
2017-Nov-17 14:58N 28°06' W 015°24'0 0.0
2017-Nov-17 14:28N 28°06' W 015°24'0 0.0
2017-Nov-17 13:49N 28°06' W 015°24'0 0.1
2017-Nov-17 13:19N 28°06' W 015°24'0 0.1
2017-Nov-17 12:56N 28°06' W 015°24'0 0.1
2017-Nov-17 12:31N 28°06' W 015°24'3 0.1
2017-Nov-16 18:37N 28°09' W 015°26'1 7.0
2017-Nov-16 18:27N 28°08' W 015°25'0 0.6
2017-Nov-16 17:58N 28°07' W 015°25'0 0.0
2017-Nov-16 17:28N 28°07' W 015°25'0 0.0
2017-Nov-16 16:58N 28°07' W 015°25'0 0.0
2017-Nov-16 16:28N 28°07' W 015°25'0 0.0
2017-Nov-16 15:58N 28°07' W 015°25'1 1.5
2017-Nov-16 15:29N 28°07' W 015°24'0 0.0
2017-Nov-16 14:59N 28°07' W 015°24'0 0.0
2017-Nov-16 14:29N 28°07' W 015°24'0 0.0
2017-Nov-16 13:56N 28°07' W 015°24'1 2.4
2017-Nov-16 13:30N 28°08' W 015°25'1 2.5
2017-Nov-16 13:00N 28°09' W 015°26'0 0.0
2017-Nov-16 12:30N 28°09' W 015°26'0 0.0
2017-Nov-16 11:51N 28°09' W 015°26'0 0.0
2017-Nov-16 11:21N 28°09' W 015°26'0 0.0
2017-Nov-15 11:51N 28°09' W 015°26'0 0.0
2017-Nov-15 11:27N 28°09' W 015°26'0 0.0
2017-Nov-15 10:57N 28°09' W 015°26'0 0.0
2017-Nov-15 10:27N 28°09' W 015°26'0 0.0
2017-Nov-15 09:57N 28°09' W 015°26'0 0.0
2017-Nov-15 09:27N 28°09' W 015°26'2 4.0
2017-Nov-15 08:51N 28°07' W 015°24'0 0.0
2017-Nov-15 08:24N 28°07' W 015°24'0 0.0
2017-Nov-15 07:54N 28°07' W 015°24'0 0.0
2017-Nov-15 07:24N 28°07' W 015°24'0 0.0
2017-Nov-15 06:54N 28°07' W 015°24'0 0.0
2017-Nov-15 06:24N 28°07' W 015°24'0 0.0
2017-Nov-15 05:54N 28°07' W 015°24'0 0.0
2017-Nov-15 05:27N 28°07' W 015°24'1 2.2
2017-Nov-15 04:56N 28°08' W 015°25'1 0.1
2017-Nov-14 13:02N 28°09' W 015°26'0 0.3
2017-Nov-14 13:00N 28°09' W 015°26'2 2.5
2017-Nov-14 12:22N 28°07' W 015°25'0 0.1
2017-Nov-14 11:52N 28°07' W 015°25'0 0.1
2017-Nov-14 11:22N 28°07' W 015°25'0 0.0
2017-Nov-14 10:52N 28°07' W 015°25'0 0.1
2017-Nov-14 10:22N 28°07' W 015°25'0 0.0
2017-Nov-14 09:55N 28°07' W 015°25'0 0.1
2017-Nov-14 09:29N 28°07' W 015°25'2 0.0
2017-Nov-12 16:36N 28°09' W 015°26'0 0.9
2017-Nov-12 16:18N 28°09' W 015°26'310.0
2017-Nov-12 15:59N 28°06' W 015°24'1 2.6
2017-Nov-12 15:30N 28°07' W 015°25'2 2.0
2017-Nov-12 14:23N 28°09' W 015°26'3 8.2
2017-Nov-12 14:00N 28°06' W 015°24'0 0.0
2017-Nov-12 13:29N 28°06' W 015°24'0 0.0
2017-Nov-12 13:00N 28°06' W 015°24'0 0.1
2017-Nov-12 12:25N 28°06' W 015°24'0 0.9
2017-Nov-12 11:58N 28°06' W 015°24'3 0.1
2017-Nov-10 22:12N 28°09' W 015°26'1 5.4
2017-Nov-10 21:56N 28°07' W 015°25'0 0.0
2017-Nov-10 21:24N 28°07' W 015°25'0 0.0
2017-Nov-10 20:56N 28°08' W 015°25'0 0.0
2017-Nov-10 20:27N 28°08' W 015°25'0 0.0
2017-Nov-10 19:59N 28°08' W 015°25'1 2.7
2017-Nov-10 19:29N 28°09' W 015°26'0 0.0
2017-Nov-10 18:59N 28°09' W 015°26'0 0.0
2017-Nov-10 18:29N 28°09' W 015°26'3 5.3
2017-Nov-10 18:00N 28°07' W 015°24'0 0.0
2017-Nov-10 17:30N 28°07' W 015°24'0 0.0
2017-Nov-10 16:58N 28°07' W 015°24'0 0.0
2017-Nov-10 16:30N 28°07' W 015°24'1 2.3
2017-Nov-10 16:00N 28°08' W 015°25'1 2.8
2017-Nov-10 15:29N 28°09' W 015°26'0 0.0
2017-Nov-10 14:59N 28°09' W 015°26'0 0.0
2017-Nov-10 14:29N 28°09' W 015°26'1 2.1
2017-Nov-10 13:57N 28°08' W 015°25'3 6.3
2017-Nov-10 13:27N 28°05' W 015°24'0 0.0
2017-Nov-10 13:00N 28°05' W 015°24'0 0.1
2017-Nov-10 12:30N 28°05' W 015°24'0 0.1
2017-Nov-10 11:56N 28°05' W 015°24'4 7.5
2017-Nov-10 11:25N 28°08' W 015°25'0 0.8
2017-Nov-10 10:51N 28°09' W 015°26'0 0.0
2017-Nov-09 19:35N 28°09' W 015°26'0 0.0
2017-Nov-09 19:30N 28°09' W 015°26'4 8.1
2017-Nov-09 19:00N 28°05' W 015°24'0 0.2
2017-Nov-09 18:30N 28°05' W 015°24'0 0.0
2017-Nov-09 17:58N 28°05' W 015°24'0 0.0
2017-Nov-09 17:29N 28°05' W 015°24'0 0.0
2017-Nov-09 16:55N 28°05' W 015°24'0 1.0
2017-Nov-09 16:30N 28°05' W 015°24'4 0.9
2017-Nov-09 12:30N 28°09' W 015°26'2 3.1
2017-Nov-09 12:00N 28°07' W 015°25'2 1.3
2017-Nov-09 10:51N 28°09' W 015°26'1 4.1
2017-Nov-09 10:30N 28°08' W 015°25'2 3.6
2017-Nov-09 10:00N 28°06' W 015°24'1 1.2
2017-Nov-09 09:30N 28°07' W 015°24'3 4.8
2017-Nov-09 08:58N 28°09' W 015°26'  
Track history (hours):
 
Tides and Currents Weather Stations Pressure Air Temp Water Temp Dewpoint Dewpoint Depression Visibility Wind Speed Wind Dir Waves Ship Positions

Maspalomas

Last reported at 2017-Nov-18 04:31 UTC. Time now 2017-Nov-20 15:31 UTC.
Position N 28°09' W 015°26'.

Length 23 m.

Type: Port tender. MMSI: 224060250.

Date/timePositionNaut miles runAvg speedWind from/ knotsBaromVisibWave heightAir tempDewpointWater temp
2017-Nov-18 04:31N 28°09' W 015°26'0 0.0
2017-Nov-18 04:28N 28°09' W 015°26'1 2.6
2017-Nov-18 03:54N 28°07' W 015°25'0 0.0
2017-Nov-18 03:21N 28°07' W 015°25'0 0.0
2017-Nov-18 02:54N 28°07' W 015°25'0 0.1
2017-Nov-18 02:22N 28°08' W 015°25'0 0.2
2017-Nov-18 02:00N 28°07' W 015°25'1 0.2
2017-Nov-17 16:51N 28°09' W 015°26'2 6.9
2017-Nov-17 16:30N 28°07' W 015°25'0 0.7
2017-Nov-17 15:58N 28°06' W 015°24'0 0.0
2017-Nov-17 15:28N 28°06' W 015°24'0 0.0
2017-Nov-17 14:58N 28°06' W 015°24'0 0.0
2017-Nov-17 14:28N 28°06' W 015°24'0 0.0
2017-Nov-17 13:49N 28°06' W 015°24'0 0.1
2017-Nov-17 13:19N 28°06' W 015°24'0 0.1
2017-Nov-17 12:56N 28°06' W 015°24'0 0.1
2017-Nov-17 12:31N 28°06' W 015°24'3 0.1
2017-Nov-16 18:37N 28°09' W 015°26'1 7.0
2017-Nov-16 18:27N 28°08' W 015°25'0 0.6
2017-Nov-16 17:58N 28°07' W 015°25'0 0.0
2017-Nov-16 17:28N 28°07' W 015°25'0 0.0
2017-Nov-16 16:58N 28°07' W 015°25'0 0.0
2017-Nov-16 16:28N 28°07' W 015°25'0 0.0
2017-Nov-16 15:58N 28°07' W 015°25'1 1.5
2017-Nov-16 15:29N 28°07' W 015°24'0 0.0
2017-Nov-16 14:59N 28°07' W 015°24'0 0.0
2017-Nov-16 14:29N 28°07' W 015°24'0 0.0
2017-Nov-16 13:56N 28°07' W 015°24'1 2.4
2017-Nov-16 13:30N 28°08' W 015°25'1 2.5
2017-Nov-16 13:00N 28°09' W 015°26'0 0.0
2017-Nov-16 12:30N 28°09' W 015°26'0 0.0
2017-Nov-16 11:51N 28°09' W 015°26'0 0.0
2017-Nov-16 11:21N 28°09' W 015°26'0 0.0
2017-Nov-15 11:51N 28°09' W 015°26'0 0.0
2017-Nov-15 11:27N 28°09' W 015°26'0 0.0
2017-Nov-15 10:57N 28°09' W 015°26'0 0.0
2017-Nov-15 10:27N 28°09' W 015°26'0 0.0
2017-Nov-15 09:57N 28°09' W 015°26'0 0.0
2017-Nov-15 09:27N 28°09' W 015°26'2 4.0
2017-Nov-15 08:51N 28°07' W 015°24'0 0.0
2017-Nov-15 08:24N 28°07' W 015°24'0 0.0
2017-Nov-15 07:54N 28°07' W 015°24'0 0.0
2017-Nov-15 07:24N 28°07' W 015°24'0 0.0
2017-Nov-15 06:54N 28°07' W 015°24'0 0.0
2017-Nov-15 06:24N 28°07' W 015°24'0 0.0
2017-Nov-15 05:54N 28°07' W 015°24'0 0.0
2017-Nov-15 05:27N 28°07' W 015°24'1 2.2
2017-Nov-15 04:56N 28°08' W 015°25'1 0.1
2017-Nov-14 13:02N 28°09' W 015°26'0 0.3
2017-Nov-14 13:00N 28°09' W 015°26'2 2.5
2017-Nov-14 12:22N 28°07' W 015°25'0 0.1
2017-Nov-14 11:52N 28°07' W 015°25'0 0.1
2017-Nov-14 11:22N 28°07' W 015°25'0 0.0
2017-Nov-14 10:52N 28°07' W 015°25'0 0.1
2017-Nov-14 10:22N 28°07' W 015°25'0 0.0
2017-Nov-14 09:55N 28°07' W 015°25'0 0.1
2017-Nov-14 09:29N 28°07' W 015°25'2 0.0
2017-Nov-12 16:36N 28°09' W 015°26'0 0.9
2017-Nov-12 16:18N 28°09' W 015°26'310.0
2017-Nov-12 15:59N 28°06' W 015°24'1 2.6
2017-Nov-12 15:30N 28°07' W 015°25'2 2.0
2017-Nov-12 14:23N 28°09' W 015°26'3 8.2
2017-Nov-12 14:00N 28°06' W 015°24'0 0.0
2017-Nov-12 13:29N 28°06' W 015°24'0 0.0
2017-Nov-12 13:00N 28°06' W 015°24'0 0.1
2017-Nov-12 12:25N 28°06' W 015°24'0 0.9
2017-Nov-12 11:58N 28°06' W 015°24'3 0.1
2017-Nov-10 22:12N 28°09' W 015°26'1 5.4
2017-Nov-10 21:56N 28°07' W 015°25'0 0.0
2017-Nov-10 21:24N 28°07' W 015°25'0 0.0
2017-Nov-10 20:56N 28°08' W 015°25'0 0.0
2017-Nov-10 20:27N 28°08' W 015°25'0 0.0
2017-Nov-10 19:59N 28°08' W 015°25'1 2.7
2017-Nov-10 19:29N 28°09' W 015°26'0 0.0
2017-Nov-10 18:59N 28°09' W 015°26'0 0.0
2017-Nov-10 18:29N 28°09' W 015°26'3 5.3
2017-Nov-10 18:00N 28°07' W 015°24'0 0.0
2017-Nov-10 17:30N 28°07' W 015°24'0 0.0
2017-Nov-10 16:58N 28°07' W 015°24'0 0.0
2017-Nov-10 16:30N 28°07' W 015°24'1 2.3
2017-Nov-10 16:00N 28°08' W 015°25'1 2.8
2017-Nov-10 15:29N 28°09' W 015°26'0 0.0
2017-Nov-10 14:59N 28°09' W 015°26'0 0.0
2017-Nov-10 14:29N 28°09' W 015°26'1 2.1
2017-Nov-10 13:57N 28°08' W 015°25'3 6.3
2017-Nov-10 13:27N 28°05' W 015°24'0 0.0
2017-Nov-10 13:00N 28°05' W 015°24'0 0.1
2017-Nov-10 12:30N 28°05' W 015°24'0 0.1
2017-Nov-10 11:56N 28°05' W 015°24'4 7.5
2017-Nov-10 11:25N 28°08' W 015°25'0 0.8
2017-Nov-10 10:51N 28°09' W 015°26'0 0.0
2017-Nov-09 19:35N 28°09' W 015°26'0 0.0
2017-Nov-09 19:30N 28°09' W 015°26'4 8.1
2017-Nov-09 19:00N 28°05' W 015°24'0 0.2
2017-Nov-09 18:30N 28°05' W 015°24'0 0.0
2017-Nov-09 17:58N 28°05' W 015°24'0 0.0
2017-Nov-09 17:29N 28°05' W 015°24'0 0.0
2017-Nov-09 16:55N 28°05' W 015°24'0 1.0
2017-Nov-09 16:30N 28°05' W 015°24'4 0.9
2017-Nov-09 12:30N 28°09' W 015°26'2 3.1
2017-Nov-09 12:00N 28°07' W 015°25'2 1.3
2017-Nov-09 10:51N 28°09' W 015°26'1 4.1
2017-Nov-09 10:30N 28°08' W 015°25'2 3.6
2017-Nov-09 10:00N 28°06' W 015°24'1 1.2
2017-Nov-09 09:30N 28°07' W 015°24'3 4.8
2017-Nov-09 08:58N 28°09' W 015°26'  

Dump ship's entire track history